Temiscaming, Canada
Current Conditions -  °F | °C
As of 1:00 PM on Thursday 30 Oct 2014 (Local Time) from CYYB Reporting Station
Overcast Overcast  
Wind Chill: 30°   Ceiling: 2200
Heat Index: 34°   Visibility: 15mi
Dew Point: 27°   Wind: 5mph
Humidity: 75%   Direction: 280°W
Pressure: 30.02"   Gusts: NA
Location:  46.72°N, 79.08°W
Report Text: CYYB 301700Z 28004KT 260V320 15SM OVC022 01/M03 A3002 RMK SC8 SLP182
Loading
Personal Weather Stations






























Interactive Weather Map
Tropical Storm Tracking
New forecast layout! Learn more

10-Day Weather Forecast

Advertisements
Track Severe Weather on mobile